Time;durP1;ratioP1;P1;durP2;ratioP2;P2;SDS_P1;SDS_P2;PMS_P1;PMS_P2;Temp;Humidity;BMP_temperature;BMP_pressure;BME280_temperature;BME280_humidity;BME280_pressure;Samples;Min_cycle;Max_cycle;Signal;HPM_P1;HPM_P2
2021/03/04 00:00:14;;;;;;;99.50;34.25;;;4.60;99.90;;;;;;5047341;28;20033;-86
2021/03/04 00:02:40;;;;;;;95.65;35.10;;;4.60;99.90;;;;;;5033818;28;20413;-85
2021/03/04 00:05:08;;;;;;;92.82;31.67;;;4.70;99.90;;;;;;5017843;28;20033;-86
2021/03/04 00:07:35;;;;;;;105.00;36.25;;;4.60;99.90;;;;;;5029704;28;20041;-85
2021/03/04 00:10:04;;;;;;;98.85;35.55;;;4.60;99.90;;;;;;5038070;28;20041;-85
2021/03/04 00:12:29;;;;;;;79.25;28.48;;;4.70;99.90;;;;;;5018761;28;20471;-85
2021/03/04 00:14:55;;;;;;;99.20;34.20;;;4.70;99.90;;;;;;5012995;28;20038;-86
2021/03/04 00:17:20;;;;;;;92.68;33.92;;;4.60;99.90;;;;;;5013050;28;20046;-86
2021/03/04 00:19:46;;;;;;;111.75;38.92;;;4.70;99.90;;;;;;5028334;28;20033;-86
2021/03/04 00:22:12;;;;;;;100.80;36.00;;;4.70;99.90;;;;;;5038248;28;20496;-86
2021/03/04 00:24:37;;;;;;;95.30;34.97;;;4.70;99.90;;;;;;5035844;28;20082;-86
2021/03/04 00:27:03;;;;;;;107.32;37.45;;;4.70;99.90;;;;;;5017882;28;20041;-86
2021/03/04 00:29:29;;;;;;;91.10;32.53;;;4.70;99.90;;;;;;5012263;28;20069;-86
2021/03/04 00:31:54;;;;;;;93.30;33.83;;;4.80;99.90;;;;;;5012966;28;20044;-85
2021/03/04 00:34:20;;;;;;;107.10;34.72;;;4.70;99.90;;;;;;5013163;28;20513;-86
2021/03/04 00:36:46;;;;;;;85.25;30.90;;;4.70;99.90;;;;;;5033914;28;20040;-86
2021/03/04 00:39:11;;;;;;;102.43;36.22;;;4.70;99.90;;;;;;5001827;28;20072;-85
2021/03/04 00:41:37;;;;;;;91.45;32.95;;;4.60;99.90;;;;;;5036809;28;20037;-86
2021/03/04 00:44:06;;;;;;;95.68;35.38;;;4.60;99.90;;;;;;5038359;28;20052;-85
2021/03/04 00:46:33;;;;;;;83.23;30.23;;;4.60;99.90;;;;;;5024824;28;20041;-86
2021/03/04 00:48:59;;;;;;;83.30;30.42;;;4.70;99.90;;;;;;5027453;28;20279;-86
2021/03/04 00:51:25;;;;;;;92.90;32.08;;;4.70;99.90;;;;;;5014945;28;20075;-86
2021/03/04 00:53:50;;;;;;;72.53;24.85;;;4.70;99.90;;;;;;5017163;28;20111;-85
2021/03/04 00:56:16;;;;;;;112.70;38.22;;;4.70;99.90;;;;;;5011653;28;20041;-85
2021/03/04 00:58:42;;;;;;;97.30;32.33;;;4.50;99.90;;;;;;5033636;28;20113;-86
2021/03/04 01:01:08;;;;;;;105.57;37.58;;;4.50;99.90;;;;;;5036271;28;20466;-86
2021/03/04 01:03:33;;;;;;;97.18;35.80;;;4.50;99.90;;;;;;5011930;28;20110;-86
2021/03/04 01:05:59;;;;;;;85.95;30.20;;;4.50;99.90;;;;;;5008242;28;20042;-85
2021/03/04 01:08:25;;;;;;;103.13;35.60;;;4.50;99.90;;;;;;5017998;28;20057;-85
2021/03/04 01:10:50;;;;;;;101.75;37.60;;;4.50;99.90;;;;;;5018799;28;20040;-85
2021/03/04 01:13:17;;;;;;;105.10;39.10;;;4.50;99.90;;;;;;5019165;28;20071;-85
2021/03/04 01:15:43;;;;;;;89.35;32.53;;;4.40;99.90;;;;;;5012273;28;20057;-85
2021/03/04 01:18:09;;;;;;;85.68;32.38;;;4.50;99.90;;;;;;5024175;28;20050;-86
2021/03/04 01:20:35;;;;;;;79.38;28.20;;;4.50;99.90;;;;;;5039331;28;20037;-86
2021/03/04 01:23:01;;;;;;;93.95;33.17;;;4.50;99.90;;;;;;5036127;28;20044;-86
2021/03/04 01:25:27;;;;;;;94.13;34.72;;;4.40;99.90;;;;;;5036363;28;20109;-86
2021/03/04 01:27:53;;;;;;;87.40;30.25;;;4.40;99.90;;;;;;5036666;28;20056;-86
2021/03/04 01:30:25;;;;;;;75.60;26.33;;;4.30;99.90;;;;;;5037024;28;20041;-86
2021/03/04 01:32:50;;;;;;;80.10;28.70;;;4.30;99.90;;;;;;5041109;28;20048;-86
2021/03/04 01:35:16;;;;;;;79.43;26.85;;;4.30;99.90;;;;;;5038560;28;20037;-86
2021/03/04 01:37:42;;;;;;;74.78;25.48;;;4.40;99.90;;;;;;5022072;28;20056;-86
2021/03/04 01:40:10;;;;;;;58.70;18.15;;;4.40;99.90;;;;;;5036453;28;20029;-85
2021/03/04 01:42:36;;;;;;;75.05;24.92;;;4.50;99.90;;;;;;5035786;28;20068;-86
2021/03/04 01:45:03;;;;;;;72.68;24.10;;;4.50;99.90;;;;;;5022164;28;20030;-86
2021/03/04 01:47:29;;;;;;;84.28;26.67;;;4.50;99.90;;;;;;5038380;28;20044;-86
2021/03/04 01:49:55;;;;;;;98.55;33.13;;;4.40;99.90;;;;;;5032653;28;20029;-86
2021/03/04 01:52:21;;;;;;;102.45;33.00;;;4.40;99.90;;;;;;5038192;28;20069;-86
2021/03/04 01:54:47;;;;;;;83.10;27.20;;;4.40;99.90;;;;;;5033905;28;20044;-86
2021/03/04 01:57:13;;;;;;;78.93;25.02;;;4.40;99.90;;;;;;5038391;28;20041;-86
2021/03/04 01:59:40;;;;;;;70.35;23.00;;;4.40;99.90;;;;;;5021531;28;20067;-86
2021/03/04 02:02:06;;;;;;;96.03;30.27;;;4.50;99.90;;;;;;5038469;28;20029;-86
2021/03/04 02:04:32;;;;;;;77.78;24.05;;;4.30;99.90;;;;;;5038191;28;20037;-86
2021/03/04 02:07:13;;;;;;;64.32;21.00;;;4.30;99.90;;;;;;5035629;28;20038;-86
2021/03/04 02:09:44;;;;;;;89.68;30.33;;;4.30;99.90;;;;;;5006690;28;20051;-86
2021/03/04 02:12:15;;;;;;;82.30;26.35;;;4.20;99.90;;;;;;5034600;28;20095;-86
2021/03/04 02:14:53;;;;;;;69.35;24.27;;;4.30;99.90;;;;;;5029649;28;20040;-86
2021/03/04 02:17:21;;;;;;;64.25;21.77;;;4.40;99.90;;;;;;5033193;28;20033;-85
2021/03/04 02:19:56;;;;;;;57.45;18.67;;;4.40;99.90;;;;;;5032503;28;20044;-86
2021/03/04 02:22:46;;;;;;;57.92;19.20;;;4.40;99.90;;;;;;5038515;28;20029;-86
2021/03/04 02:25:30;;;;;;;49.30;17.58;;;4.40;99.90;;;;;;5027314;28;20064;-86
2021/03/04 02:27:57;;;;;;;52.70;16.85;;;4.40;99.90;;;;;;5024150;28;20038;-86
2021/03/04 02:30:27;;;;;;;55.83;17.48;;;4.40;99.90;;;;;;5030312;28;20105;-85
2021/03/04 02:32:59;;;;;;;59.83;20.52;;;4.40;99.90;;;;;;5018757;28;20038;-86
2021/03/04 02:35:30;;;;;;;64.78;21.63;;;4.30;99.90;;;;;;5032687;28;20129;-86
2021/03/04 02:38:27;;;;;;;59.60;20.00;;;4.20;99.90;;;;;;5024184;28;20049;-86
2021/03/04 02:40:54;;;;;;;61.10;21.70;;;4.20;99.90;;;;;;5047450;28;20033;-86
2021/03/04 02:43:24;;;;;;;71.57;26.05;;;4.10;99.90;;;;;;5037538;28;20128;-86
2021/03/04 02:45:51;;;;;;;65.50;25.05;;;4.00;99.90;;;;;;5017159;28;20522;-85
2021/03/04 02:48:19;;;;;;;69.45;25.35;;;4.00;99.90;;;;;;5012588;28;20038;-86
2021/03/04 02:50:48;;;;;;;57.22;21.90;;;4.00;99.90;;;;;;5027605;28;20033;-86
2021/03/04 02:53:14;;;;;;;55.17;19.80;;;4.00;99.90;;;;;;5011866;28;20037;-86
2021/03/04 02:55:41;;;;;;;49.90;18.45;;;4.10;99.90;;;;;;5015628;28;20038;-85
2021/03/04 02:58:08;;;;;;;48.33;17.35;;;4.00;99.90;;;;;;5011774;28;20057;-86
2021/03/04 03:00:35;;;;;;;49.38;18.10;;;4.10;99.90;;;;;;5014798;28;20180;-86
2021/03/04 03:03:02;;;;;;;47.47;17.35;;;4.20;99.90;;;;;;5017770;28;20041;-86
2021/03/04 03:05:32;;;;;;;43.17;14.95;;;4.20;99.90;;;;;;5035537;28;20047;-86
2021/03/04 03:07:58;;;;;;;40.67;15.25;;;4.20;99.90;;;;;;5036335;28;20525;-86
2021/03/04 03:10:26;;;;;;;54.78;20.35;;;4.20;99.90;;;;;;5041647;28;20047;-85
2021/03/04 03:12:56;;;;;;;48.63;17.52;;;4.10;99.90;;;;;;5012073;28;20030;-86
2021/03/04 03:15:23;;;;;;;53.88;19.67;;;4.10;99.90;;;;;;5044922;28;20059;-85
2021/03/04 03:17:49;;;;;;;58.17;20.08;;;4.00;99.90;;;;;;5010572;28;20034;-86
2021/03/04 03:20:18;;;;;;;63.13;24.15;;;4.00;99.90;;;;;;5041175;28;20049;-86
2021/03/04 03:22:45;;;;;;;71.25;24.63;;;3.90;99.90;;;;;;5036651;28;20543;-85
2021/03/04 03:25:12;;;;;;;71.05;22.35;;;3.90;99.90;;;;;;5015432;28;20064;-86
2021/03/04 03:27:40;;;;;;;69.90;23.10;;;3.90;99.90;;;;;;5027998;28;20037;-85
2021/03/04 03:30:26;;;;;;;81.57;28.50;;;3.80;99.90;;;;;;5041713;28;20041;-86
2021/03/04 03:33:00;;;;;;;65.85;22.50;;;3.80;99.90;;;;;;5020788;28;20118;-85
2021/03/04 03:35:27;;;;;;;59.60;19.92;;;3.90;99.90;;;;;;5026153;28;20041;-85
2021/03/04 03:37:55;;;;;;;42.78;13.88;;;4.00;99.90;;;;;;5026528;28;20041;-86
2021/03/04 03:40:23;;;;;;;57.63;19.67;;;4.00;99.90;;;;;;5039070;28;20033;-86
2021/03/04 03:42:50;;;;;;;53.13;17.92;;;4.00;99.90;;;;;;5034163;28;20053;-86
2021/03/04 03:45:24;;;;;;;62.80;21.75;;;4.00;99.90;;;;;;5030123;28;20460;-86
2021/03/04 03:47:51;;;;;;;60.90;19.60;;;4.00;99.90;;;;;;5027331;28;20045;-85
2021/03/04 03:50:17;;;;;;;65.72;23.35;;;4.00;99.90;;;;;;5027177;28;20040;-85
2021/03/04 03:52:44;;;;;;;68.30;24.20;;;4.00;99.90;;;;;;5034095;28;20029;-86
2021/03/04 03:55:13;;;;;;;70.97;23.92;;;4.00;99.90;;;;;;5027361;28;20037;-86
2021/03/04 03:57:40;;;;;;;58.53;19.80;;;4.00;99.90;;;;;;5013513;28;20045;-86
2021/03/04 04:00:08;;;;;;;64.22;22.92;;;3.90;99.90;;;;;;5025139;28;20034;-86
2021/03/04 04:02:34;;;;;;;62.47;21.90;;;3.90;99.90;;;;;;5027579;28;20179;-86
2021/03/04 04:05:01;;;;;;;69.47;24.63;;;3.90;99.90;;;;;;5027645;28;20041;-85
2021/03/04 04:07:31;;;;;;;50.95;18.52;;;3.90;99.90;;;;;;5031915;28;20064;-86
2021/03/04 04:09:57;;;;;;;51.05;18.23;;;3.90;99.90;;;;;;5027680;28;20060;-86
2021/03/04 04:12:24;;;;;;;54.85;17.08;;;4.00;99.90;;;;;;5061569;28;20121;-86
2021/03/04 04:14:50;;;;;;;47.22;16.05;;;4.00;99.90;;;;;;5025722;28;20285;-86
2021/03/04 04:17:17;;;;;;;49.83;18.02;;;4.00;99.90;;;;;;5029018;28;20042;-86
2021/03/04 04:19:43;;;;;;;53.10;20.00;;;4.00;99.90;;;;;;5013381;28;20037;-86
2021/03/04 04:22:09;;;;;;;54.83;19.40;;;3.80;99.90;;;;;;5014547;28;20041;-85
2021/03/04 04:24:36;;;;;;;54.78;19.55;;;3.90;99.90;;;;;;5034856;28;20060;-86
2021/03/04 04:27:02;;;;;;;54.83;19.35;;;3.80;99.90;;;;;;5010796;28;20042;-86
2021/03/04 04:29:29;;;;;;;51.28;17.27;;;3.80;99.90;;;;;;5017258;28;20045;-86
2021/03/04 04:31:55;;;;;;;47.72;17.08;;;3.80;99.90;;;;;;5025231;28;20038;-85
2021/03/04 04:34:20;;;;;;;53.38;20.80;;;3.80;99.90;;;;;;5044423;28;20038;-86
2021/03/04 04:36:46;;;;;;;47.38;17.35;;;3.70;99.90;;;;;;5010789;28;20041;-86
2021/03/04 04:39:11;;;;;;;43.60;16.40;;;3.70;99.90;;;;;;5020596;28;20052;-85
2021/03/04 04:41:37;;;;;;;56.17;19.77;;;3.80;99.90;;;;;;5035538;28;20052;-86
2021/03/04 04:44:03;;;;;;;56.22;19.20;;;3.70;99.90;;;;;;5020050;28;20101;-85
2021/03/04 04:46:29;;;;;;;50.50;17.02;;;3.70;99.90;;;;;;5018749;28;20070;-85
2021/03/04 04:48:54;;;;;;;40.30;14.05;;;3.80;99.90;;;;;;5035390;28;20038;-86
2021/03/04 04:51:20;;;;;;;43.85;16.83;;;3.70;99.90;;;;;;5027776;28;20041;-86
2021/03/04 04:53:46;;;;;;;49.75;17.77;;;3.70;99.90;;;;;;5017455;28;20037;-85
2021/03/04 04:56:12;;;;;;;59.20;20.60;;;3.70;99.90;;;;;;5021038;28;20043;-85
2021/03/04 04:58:38;;;;;;;53.63;21.45;;;3.70;99.90;;;;;;5012184;28;20132;-85
2021/03/04 05:01:04;;;;;;;60.15;23.05;;;3.60;99.90;;;;;;5039297;28;20559;-86
2021/03/04 05:03:29;;;;;;;53.50;19.63;;;3.70;99.90;;;;;;5034594;28;20040;-85
2021/03/04 05:05:55;;;;;;;55.80;21.08;;;3.70;99.90;;;;;;5016375;28;20044;-85
2021/03/04 05:08:21;;;;;;;49.13;16.88;;;3.60;99.90;;;;;;5016740;28;20042;-86
2021/03/04 05:10:46;;;;;;;50.33;18.55;;;3.70;99.90;;;;;;5016829;28;20087;-85
2021/03/04 05:13:12;;;;;;;44.35;16.58;;;3.70;99.90;;;;;;5009702;28;20071;-86
2021/03/04 05:15:38;;;;;;;65.45;21.73;;;3.60;99.90;;;;;;5044648;28;20121;-86
2021/03/04 05:18:04;;;;;;;49.40;17.70;;;3.60;99.90;;;;;;5024467;28;20068;-86
2021/03/04 05:20:30;;;;;;;59.80;21.33;;;3.70;99.90;;;;;;5002412;28;20048;-86
2021/03/04 05:22:55;;;;;;;55.60;20.33;;;3.60;99.90;;;;;;5023467;28;20036;-86
2021/03/04 05:25:21;;;;;;;55.22;19.85;;;3.70;99.90;;;;;;5007862;28;20546;-86
2021/03/04 05:27:46;;;;;;;53.33;18.65;;;3.60;99.90;;;;;;5016289;28;20033;-86
2021/03/04 05:30:12;;;;;;;60.92;19.88;;;3.60;99.90;;;;;;5032948;28;20037;-85
2021/03/04 05:32:38;;;;;;;55.15;20.02;;;3.50;99.90;;;;;;5026791;28;20030;-86
2021/03/04 05:35:04;;;;;;;69.72;23.27;;;3.50;99.90;;;;;;5020809;28;20079;-86
2021/03/04 05:37:30;;;;;;;62.83;21.55;;;3.50;99.90;;;;;;5021241;28;20069;-86
2021/03/04 05:39:55;;;;;;;53.88;17.98;;;3.60;99.90;;;;;;5009225;28;20069;-86
2021/03/04 05:42:21;;;;;;;53.20;19.05;;;3.50;99.90;;;;;;5029460;28;20117;-86
2021/03/04 05:44:48;;;;;;;49.83;16.85;;;3.50;99.90;;;;;;5016347;28;20575;-86
2021/03/04 05:47:14;;;;;;;39.50;14.82;;;3.60;99.90;;;;;;5019736;28;20049;-86
2021/03/04 05:50:02;;;;;;;45.72;14.60;;;3.60;99.90;;;;;;5011368;28;20030;-85
2021/03/04 05:52:29;;;;;;;60.35;21.58;;;3.60;99.90;;;;;;5026876;28;20041;-86
2021/03/04 05:54:56;;;;;;;39.53;14.80;;;3.60;99.90;;;;;;5019900;28;20181;-86
2021/03/04 05:57:22;;;;;;;52.58;18.00;;;3.50;99.90;;;;;;5037208;28;20038;-86
2021/03/04 05:59:53;;;;;;;54.55;18.92;;;3.50;99.90;;;;;;5016093;28;20067;-86
2021/03/04 06:02:21;;;;;;;51.20;18.20;;;3.50;99.90;;;;;;5034539;28;20033;-87
2021/03/04 06:04:48;;;;;;;46.38;16.65;;;3.40;99.90;;;;;;5008166;28;20029;-86
2021/03/04 06:07:14;;;;;;;55.67;20.45;;;3.40;99.90;;;;;;5022889;28;20033;-85
2021/03/04 06:09:39;;;;;;;50.03;19.48;;;3.40;99.90;;;;;;5032756;28;20045;-86
2021/03/04 06:12:06;;;;;;;49.45;18.75;;;3.40;99.90;;;;;;5029766;28;20024;-85
2021/03/04 06:14:35;;;;;;;55.28;21.27;;;3.40;99.90;;;;;;5019808;28;20045;-86
2021/03/04 06:17:15;;;;;;;52.17;19.38;;;3.40;99.90;;;;;;5039203;28;20041;-86
2021/03/04 06:19:50;;;;;;;57.83;21.38;;;3.40;99.90;;;;;;5022729;28;20061;-86
2021/03/04 06:22:23;;;;;;;54.83;20.20;;;3.40;99.90;;;;;;5059376;28;20033;-85
2021/03/04 06:24:56;;;;;;;54.25;20.38;;;3.40;99.90;;;;;;5026584;28;20056;-86
2021/03/04 06:27:30;;;;;;;58.97;19.23;;;3.40;99.90;;;;;;5049839;28;20038;-86
2021/03/04 06:29:58;;;;;;;54.88;19.92;;;3.40;99.90;;;;;;5017826;28;20037;-86
2021/03/04 06:32:25;;;;;;;49.38;16.23;;;3.40;99.90;;;;;;5028456;28;20069;-86
2021/03/04 06:35:09;;;;;;;46.75;17.15;;;3.50;99.90;;;;;;5026064;28;20108;-85
2021/03/04 06:37:37;;;;;;;53.22;17.20;;;3.40;99.90;;;;;;5055688;28;20136;-86
2021/03/04 06:40:06;;;;;;;58.50;21.48;;;3.50;99.90;;;;;;5014583;28;20038;-86
2021/03/04 06:42:42;;;;;;;61.20;20.58;;;3.40;99.90;;;;;;5013275;28;20030;-86
2021/03/04 06:45:21;;;;;;;66.40;21.98;;;3.40;99.90;;;;;;5027962;28;20037;-86
2021/03/04 06:47:47;;;;;;;62.95;21.77;;;3.40;99.90;;;;;;5041964;28;20044;-84
2021/03/04 06:50:25;;;;;;;60.83;19.38;;;3.40;99.90;;;;;;5044481;28;20037;-86
2021/03/04 06:52:51;;;;;;;59.85;19.20;;;3.30;99.90;;;;;;5053986;28;20621;-85
2021/03/04 06:55:17;;;;;;;59.60;20.00;;;3.40;99.90;;;;;;5026170;28;20072;-86
2021/03/04 06:58:00;;;;;;;72.93;24.63;;;3.30;99.90;;;;;;5022442;28;20053;-86
2021/03/04 07:00:27;;;;;;;65.28;21.67;;;3.40;99.90;;;;;;5013280;28;20072;-86
2021/03/04 07:02:54;;;;;;;61.38;20.45;;;3.40;99.90;;;;;;5023017;28;20032;-85
2021/03/04 07:05:21;;;;;;;51.67;17.25;;;3.40;99.90;;;;;;5028749;28;20037;-86
2021/03/04 07:07:52;;;;;;;60.17;19.63;;;3.40;99.90;;;;;;5035262;28;20041;-85
2021/03/04 07:10:22;;;;;;;58.72;19.50;;;3.40;99.90;;;;;;5001004;28;20033;-85
2021/03/04 07:12:49;;;;;;;64.82;20.77;;;3.40;99.90;;;;;;5016699;28;20037;-85
2021/03/04 07:15:17;;;;;;;58.45;18.30;;;3.40;99.90;;;;;;5016284;28;20037;-86
2021/03/04 07:17:45;;;;;;;67.07;21.85;;;3.50;99.90;;;;;;5016936;28;20120;-85
2021/03/04 07:20:18;;;;;;;55.97;17.60;;;3.40;99.90;;;;;;5016900;28;20053;-85
2021/03/04 07:22:48;;;;;;;49.60;17.55;;;3.40;99.90;;;;;;4995315;28;20034;-86
2021/03/04 07:25:15;;;;;;;50.78;16.63;;;3.50;99.90;;;;;;5015227;28;20053;-85
2021/03/04 07:27:45;;;;;;;56.75;17.85;;;3.50;99.90;;;;;;5016881;28;20044;-85
2021/03/04 07:30:11;;;;;;;63.97;21.77;;;3.50;99.90;;;;;;5004464;28;20038;-85
2021/03/04 07:32:38;;;;;;;55.22;17.48;;;3.40;99.90;;;;;;5002043;28;20044;-86
2021/03/04 07:35:12;;;;;;;70.30;21.67;;;3.50;99.90;;;;;;5016806;28;20401;-84
2021/03/04 07:37:42;;;;;;;59.05;19.60;;;3.40;99.90;;;;;;5002875;28;20037;-85
2021/03/04 07:40:12;;;;;;;57.92;19.25;;;3.50;99.90;;;;;;4999671;28;20061;-84
2021/03/04 07:42:38;;;;;;;63.15;18.20;;;3.40;99.90;;;;;;5000250;28;20506;-85
2021/03/04 07:45:15;;;;;;;58.17;17.83;;;3.50;99.90;;;;;;5016359;28;20093;-85
2021/03/04 07:47:40;;;;;;;60.55;19.17;;;3.50;99.90;;;;;;5012857;28;20076;-85
2021/03/04 07:50:21;;;;;;;64.05;19.52;;;3.50;99.90;;;;;;5015128;28;20177;-86
2021/03/04 07:52:47;;;;;;;64.43;19.60;;;3.50;99.90;;;;;;5015169;28;20041;-85
2021/03/04 07:55:14;;;;;;;63.40;20.50;;;3.50;99.90;;;;;;5032212;28;20044;-86
2021/03/04 07:57:45;;;;;;;63.80;21.63;;;3.50;99.90;;;;;;5013328;28;20488;-86
2021/03/04 08:00:11;;;;;;;66.18;20.88;;;3.50;99.90;;;;;;5011252;28;20109;-86
2021/03/04 08:02:42;;;;;;;68.77;21.10;;;3.50;99.90;;;;;;5016251;28;20105;-86
2021/03/04 08:05:16;;;;;;;56.05;18.38;;;3.50;99.90;;;;;;5019105;28;20504;-86
2021/03/04 08:07:46;;;;;;;56.38;18.27;;;3.60;99.90;;;;;;5000094;28;20040;-85
2021/03/04 08:10:15;;;;;;;64.35;22.05;;;3.50;99.90;;;;;;5001841;28;20033;-86
2021/03/04 08:12:50;;;;;;;57.00;17.85;;;3.50;99.90;;;;;;5013208;28;20030;-86
2021/03/04 08:15:17;;;;;;;72.05;20.63;;;3.60;99.90;;;;;;5015193;28;20101;-86
2021/03/04 08:17:44;;;;;;;71.03;21.95;;;3.50;99.90;;;;;;4996249;28;20052;-86
2021/03/04 08:20:10;;;;;;;58.88;17.08;;;3.50;99.90;;;;;;5016712;28;20045;-86
2021/03/04 08:22:49;;;;;;;71.97;23.67;;;3.60;99.90;;;;;;4992684;28;20451;-85
2021/03/04 08:25:22;;;;;;;63.85;20.85;;;3.50;99.90;;;;;;4997583;28;20053;-85
2021/03/04 08:27:50;;;;;;;67.50;21.33;;;3.60;99.90;;;;;;5016937;28;20070;-86
2021/03/04 08:30:28;;;;;;;73.35;24.50;;;3.50;99.90;;;;;;5022000;28;20057;-85
2021/03/04 08:32:55;;;;;;;70.55;23.98;;;3.50;99.90;;;;;;5016731;28;20039;-85
2021/03/04 08:35:22;;;;;;;67.20;21.75;;;3.50;99.90;;;;;;5013912;28;20042;-86
2021/03/04 08:37:59;;;;;;;68.47;19.33;;;3.60;99.90;;;;;;5005386;28;20046;-86
2021/03/04 08:40:24;;;;;;;54.88;18.00;;;3.60;99.90;;;;;;5005119;28;20040;-86
2021/03/04 08:42:50;;;;;;;58.20;17.65;;;3.70;99.90;;;;;;5019573;28;20061;-85
2021/03/04 08:45:30;;;;;;;50.38;15.95;;;3.70;99.90;;;;;;5002935;28;20038;-86
2021/03/04 08:47:56;;;;;;;51.42;16.90;;;3.70;99.90;;;;;;5021667;28;20042;-86
2021/03/04 08:50:38;;;;;;;49.38;15.95;;;3.70;99.90;;;;;;5001760;28;20479;-86
2021/03/04 08:53:12;;;;;;;59.80;17.15;;;3.70;99.90;;;;;;5002688;28;20044;-85
2021/03/04 08:55:52;;;;;;;45.75;14.20;;;3.70;99.90;;;;;;5002975;28;20037;-85
2021/03/04 08:58:19;;;;;;;41.85;12.02;;;3.70;99.90;;;;;;5014827;28;20053;-85
2021/03/04 09:00:52;;;;;;;51.83;16.25;;;3.70;99.90;;;;;;5008316;28;20033;-85
2021/03/04 09:03:19;;;;;;;52.42;15.48;;;3.50;99.90;;;;;;5001802;28;20035;-86
2021/03/04 09:06:12;;;;;;;58.17;16.92;;;3.60;99.90;;;;;;5014341;28;20455;-85
2021/03/04 09:08:50;;;;;;;52.10;14.23;;;3.50;99.90;;;;;;5017781;28;20133;-86
2021/03/04 09:11:30;;;;;;;46.58;12.88;;;3.60;99.90;;;;;;5014766;28;20125;-85
2021/03/04 09:14:05;;;;;;;53.72;15.88;;;3.60;99.90;;;;;;5043831;28;20072;-85
2021/03/04 09:16:45;;;;;;;49.35;14.25;;;3.60;99.90;;;;;;5003834;28;20054;-85
2021/03/04 09:19:33;;;;;;;49.95;15.13;;;3.60;99.90;;;;;;5015418;28;20057;-86
2021/03/04 09:22:04;;;;;;;50.00;16.27;;;3.50;99.90;;;;;;5001506;28;20069;-86
2021/03/04 09:24:36;;;;;;;58.92;16.75;;;3.50;99.90;;;;;;4990610;28;20107;-85
2021/03/04 09:27:03;;;;;;;47.85;14.02;;;3.50;99.90;;;;;;5028740;28;20636;-86
2021/03/04 09:29:31;;;;;;;46.90;13.05;;;3.60;99.90;;;;;;5012405;28;20041;-86
2021/03/04 09:31:57;;;;;;;43.30;13.27;;;3.50;99.90;;;;;;5026348;28;20033;-85
2021/03/04 09:34:36;;;;;;;42.35;12.32;;;3.60;99.90;;;;;;5025169;28;20057;-86
2021/03/04 09:37:11;;;;;;;47.03;13.52;;;3.60;99.90;;;;;;5008127;28;20067;-85
2021/03/04 09:39:46;;;;;;;46.65;14.57;;;3.50;99.90;;;;;;4997742;28;20050;-86
2021/03/04 09:42:19;;;;;;;47.22;14.38;;;3.60;99.90;;;;;;5025713;28;20060;-87
2021/03/04 09:44:56;;;;;;;40.63;14.43;;;3.50;99.90;;;;;;5023182;28;20041;-85
2021/03/04 09:47:30;;;;;;;47.50;14.63;;;3.40;99.90;;;;;;5022160;28;20064;-86
2021/03/04 09:50:00;;;;;;;46.58;14.50;;;3.50;99.90;;;;;;5033007;28;20069;-85
2021/03/04 09:52:28;;;;;;;50.45;15.00;;;3.50;99.90;;;;;;5039869;28;20067;-86
2021/03/04 09:55:12;;;;;;;33.65;11.35;;;3.50;99.90;;;;;;5024262;28;20046;-86
2021/03/04 09:57:42;;;;;;;46.03;14.63;;;3.50;99.90;;;;;;5029296;28;20064;-86
2021/03/04 10:00:22;;;;;;;41.75;13.00;;;3.50;99.90;;;;;;5029876;28;20189;-85
2021/03/04 10:02:50;;;;;;;43.13;12.15;;;3.60;99.90;;;;;;5025061;28;20028;-86
2021/03/04 10:05:16;;;;;;;41.88;13.45;;;3.70;99.90;;;;;;5026937;28;20117;-85
2021/03/04 10:07:41;;;;;;;36.30;12.13;;;3.70;99.90;;;;;;5026153;28;20033;-86
2021/03/04 10:10:16;;;;;;;37.95;12.95;;;3.80;99.90;;;;;;5038483;28;20354;-86
2021/03/04 10:12:56;;;;;;;40.22;13.65;;;3.80;99.90;;;;;;5015767;28;20041;-86
2021/03/04 10:15:29;;;;;;;39.47;11.73;;;3.90;99.90;;;;;;5001470;28;20033;-86
2021/03/04 10:17:56;;;;;;;31.63;10.73;;;4.00;99.90;;;;;;5017369;28;20094;-86
2021/03/04 10:20:22;;;;;;;34.50;10.88;;;4.10;99.90;;;;;;5001104;28;20049;-85
2021/03/04 10:22:49;;;;;;;30.50;9.80;;;4.10;99.90;;;;;;5014839;28;20093;-85
2021/03/04 10:25:14;;;;;;;33.15;11.48;;;4.00;99.90;;;;;;5003684;28;20041;-85
2021/03/04 10:27:40;;;;;;;29.73;9.38;;;4.10;99.90;;;;;;5018487;28;20042;-85
2021/03/04 10:30:08;;;;;;;31.63;10.85;;;4.10;99.90;;;;;;5005425;28;20034;-86
2021/03/04 10:32:34;;;;;;;37.80;11.27;;;4.10;99.90;;;;;;5019401;28;20045;-86
2021/03/04 10:35:00;;;;;;;34.25;11.35;;;4.00;99.90;;;;;;5001383;28;20099;-86
2021/03/04 10:37:25;;;;;;;31.33;10.15;;;3.90;99.90;;;;;;5019797;28;20038;-86
2021/03/04 10:39:51;;;;;;;28.63;10.80;;;4.00;99.90;;;;;;5014978;28;20087;-85
2021/03/04 10:42:17;;;;;;;33.42;12.00;;;4.00;99.90;;;;;;4998601;28;20035;-85
2021/03/04 10:44:43;;;;;;;33.05;10.95;;;4.00;99.90;;;;;;4993653;28;20034;-86
2021/03/04 10:47:08;;;;;;;35.00;11.25;;;4.00;99.90;;;;;;5002284;28;20040;-86
2021/03/04 10:49:34;;;;;;;30.90;10.70;;;3.90;99.90;;;;;;5013117;28;20026;-86
2021/03/04 10:52:00;;;;;;;27.25;9.13;;;3.90;99.90;;;;;;5017152;28;20132;-85
2021/03/04 10:54:25;;;;;;;31.63;11.20;;;4.00;99.90;;;;;;5010844;28;20042;-86
2021/03/04 10:56:51;;;;;;;27.20;10.15;;;4.00;99.90;;;;;;5000603;28;20045;-85
2021/03/04 10:59:16;;;;;;;30.55;10.48;;;4.00;99.90;;;;;;5016924;28;20069;-85
2021/03/04 11:01:42;;;;;;;25.88;8.98;;;4.00;99.90;;;;;;5017917;28;20038;-87
2021/03/04 11:04:07;;;;;;;26.05;8.88;;;4.10;99.90;;;;;;5036104;28;20031;-86
2021/03/04 11:06:33;;;;;;;26.42;10.07;;;4.20;99.90;;;;;;4995714;28;20034;-86
2021/03/04 11:08:59;;;;;;;28.05;9.20;;;4.10;99.90;;;;;;5038845;28;20068;-86
2021/03/04 11:11:24;;;;;;;28.52;8.98;;;4.10;99.90;;;;;;5013999;28;20049;-86
2021/03/04 11:13:50;;;;;;;28.77;8.95;;;4.20;99.90;;;;;;5008960;28;20096;-85
2021/03/04 11:16:16;;;;;;;26.58;9.50;;;4.20;99.90;;;;;;5039864;28;20040;-85
2021/03/04 11:18:41;;;;;;;19.23;6.82;;;4.20;99.90;;;;;;5032964;28;20545;-85
2021/03/04 11:21:07;;;;;;;19.55;6.72;;;4.30;99.90;;;;;;5018853;28;20037;-85
2021/03/04 11:23:33;;;;;;;28.23;9.10;;;4.30;99.90;;;;;;5016702;28;20126;-85
2021/03/04 11:25:59;;;;;;;32.40;10.52;;;4.20;99.90;;;;;;5019489;28;20093;-85
2021/03/04 11:28:25;;;;;;;28.70;9.48;;;4.20;99.90;;;;;;5035371;28;20053;-85
2021/03/04 11:30:50;;;;;;;24.08;8.05;;;4.20;99.90;;;;;;5019253;28;20077;-85
2021/03/04 11:33:17;;;;;;;27.20;9.13;;;4.30;99.90;;;;;;5033291;28;20084;-86
2021/03/04 11:35:43;;;;;;;21.88;7.03;;;4.20;99.90;;;;;;5018473;28;20063;-86
2021/03/04 11:38:08;;;;;;;26.92;10.32;;;4.20;99.90;;;;;;5034067;28;20128;-86
2021/03/04 11:40:34;;;;;;;29.63;10.27;;;4.10;99.90;;;;;;5045340;28;20470;-86
2021/03/04 11:42:59;;;;;;;21.23;7.72;;;4.10;99.90;;;;;;5035260;28;20113;-86
2021/03/04 11:45:25;;;;;;;23.95;7.50;;;4.20;99.90;;;;;;5019040;28;20060;-86
2021/03/04 11:47:51;;;;;;;19.33;6.13;;;4.20;99.90;;;;;;5019278;28;20037;-86
2021/03/04 11:50:16;;;;;;;23.15;7.63;;;4.30;99.90;;;;;;5016320;28;20034;-87
2021/03/04 11:52:42;;;;;;;21.67;8.23;;;4.10;99.90;;;;;;5032749;28;20037;-86
2021/03/04 11:55:09;;;;;;;23.23;8.18;;;4.20;99.90;;;;;;5033769;28;20037;-86
2021/03/04 11:57:35;;;;;;;19.50;7.15;;;4.10;99.90;;;;;;5035853;28;20108;-87
2021/03/04 12:00:01;;;;;;;19.75;6.88;;;4.10;99.90;;;;;;5032368;28;20037;-86
2021/03/04 12:02:30;;;;;;;13.75;5.55;;;4.10;99.90;;;;;;5035553;28;20037;-86
2021/03/04 12:04:56;;;;;;;11.98;4.95;;;4.00;99.90;;;;;;5018892;28;20086;-86
2021/03/04 12:07:21;;;;;;;14.07;5.45;;;4.00;99.90;;;;;;5046871;22;20055;-86
2021/03/04 12:09:48;;;;;;;14.55;5.05;;;4.00;99.90;;;;;;5075950;28;20096;-86
2021/03/04 12:12:13;;;;;;;9.88;4.40;;;4.00;99.90;;;;;;5059138;28;20127;-86
2021/03/04 12:14:39;;;;;;;8.73;3.28;;;4.00;99.90;;;;;;5042802;28;20040;-85
2021/03/04 12:17:05;;;;;;;13.07;5.18;;;4.00;99.90;;;;;;5042253;28;20062;-86
2021/03/04 12:19:31;;;;;;;9.07;3.45;;;4.00;99.90;;;;;;5049868;28;20056;-86
2021/03/04 12:21:56;;;;;;;9.68;4.00;;;4.00;99.90;;;;;;5075487;28;20131;-86
2021/03/04 12:24:22;;;;;;;9.55;3.60;;;4.10;99.90;;;;;;5052808;28;20484;-85
2021/03/04 12:26:48;;;;;;;8.57;2.95;;;4.10;99.90;;;;;;5036175;28;20033;-86
2021/03/04 12:29:17;;;;;;;8.13;2.70;;;4.40;99.90;;;;;;5037865;28;20037;-86
2021/03/04 12:31:44;;;;;;;6.18;2.38;;;4.40;99.90;;;;;;5041831;28;20041;-86
2021/03/04 12:34:10;;;;;;;9.32;3.25;;;4.70;99.90;;;;;;5042805;28;20087;-86
2021/03/04 12:36:35;;;;;;;7.47;2.97;;;4.60;99.90;;;;;;5037409;28;20041;-86
2021/03/04 12:39:03;;;;;;;5.10;1.45;;;4.80;99.90;;;;;;5034431;28;20045;-87
2021/03/04 12:41:28;;;;;;;6.35;2.17;;;4.80;99.90;;;;;;5062389;28;20463;-86
2021/03/04 12:43:57;;;;;;;6.93;3.10;;;4.60;99.90;;;;;;5049299;28;20103;-88